createdAt,value
2023-01-06T00:02:26.171Z,11.20
2023-01-06T00:04:53.134Z,11.20
2023-01-06T00:07:20.055Z,11.10
2023-01-06T00:09:47.011Z,11.10
2023-01-06T00:12:13.887Z,11.20
2023-01-06T00:14:43.083Z,11.20
2023-01-06T00:17:10.684Z,11.10
2023-01-06T00:19:37.570Z,11.10
2023-01-06T00:22:05.798Z,11.10
2023-01-06T00:24:33.679Z,11.00
2023-01-06T00:27:01.277Z,11.10
2023-01-06T00:29:28.158Z,11.00
2023-01-06T00:31:55.291Z,11.00
2023-01-06T00:34:22.186Z,11.00
2023-01-06T00:36:49.179Z,11.00
2023-01-06T00:39:16.218Z,11.00
2023-01-06T00:42:02.183Z,10.90
2023-01-06T00:44:30.249Z,10.90
2023-01-06T00:46:57.437Z,10.80
2023-01-06T00:49:24.368Z,10.80
2023-01-06T00:51:51.927Z,10.70
2023-01-06T00:54:19.081Z,10.70
2023-01-06T00:56:51.454Z,10.70
2023-01-06T00:59:21.880Z,10.60
2023-01-06T01:01:51.150Z,10.60
2023-01-06T01:04:19.304Z,10.60
2023-01-06T01:06:47.442Z,10.60
2023-01-06T01:09:22.093Z,10.50
2023-01-06T01:12:08.492Z,10.50
2023-01-06T01:14:43.788Z,10.40
2023-01-06T01:17:12.773Z,10.40
2023-01-06T01:19:40.094Z,10.30
2023-01-06T01:22:07.783Z,10.30
2023-01-06T01:24:37.710Z,10.20
2023-01-06T01:27:05.830Z,10.20
2023-01-06T01:29:32.865Z,10.10
2023-01-06T01:31:59.886Z,10.10
2023-01-06T01:34:28.130Z,10.00
2023-01-06T01:36:55.722Z,10.00
2023-01-06T01:39:26.875Z,10.00
2023-01-06T01:41:55.527Z,9.90
2023-01-06T01:44:56.740Z,9.90
2023-01-06T01:47:33.364Z,9.90
2023-01-06T01:50:25.910Z,9.80
2023-01-06T01:52:57.451Z,9.80
2023-01-06T01:55:27.176Z,9.70
2023-01-06T01:58:06.458Z,9.70
2023-01-06T02:00:34.994Z,9.70
2023-01-06T02:03:03.016Z,9.60
2023-01-06T02:05:31.005Z,9.60
2023-01-06T02:08:01.076Z,9.70
2023-01-06T02:10:28.008Z,9.70
2023-01-06T02:12:58.968Z,9.70
2023-01-06T02:15:29.240Z,9.80
2023-01-06T02:18:07.572Z,9.90
2023-01-06T02:20:43.467Z,10.00
2023-01-06T02:23:37.433Z,10.10
2023-01-06T02:26:30.644Z,10.20
2023-01-06T02:29:26.787Z,10.30
2023-01-06T02:32:12.266Z,10.40
2023-01-06T02:35:00.289Z,10.50
2023-01-06T02:37:50.443Z,10.60
2023-01-06T02:41:01.671Z,10.70
2023-01-06T02:44:02.620Z,10.80
2023-01-06T02:47:03.108Z,10.80
2023-01-06T02:49:48.954Z,10.80
2023-01-06T02:52:44.641Z,10.80
2023-01-06T02:55:33.023Z,10.80
2023-01-06T02:58:08.556Z,10.90
2023-01-06T03:00:57.330Z,10.90
2023-01-06T03:07:22.766Z,11.00
2023-01-06T03:09:53.310Z,11.00
2023-01-06T03:12:47.703Z,11.10
2023-01-06T03:15:15.615Z,11.10
2023-01-06T03:17:43.065Z,11.10
2023-01-06T03:20:11.448Z,11.10
2023-01-06T03:22:39.645Z,11.00
2023-01-06T03:25:08.757Z,11.00
2023-01-06T03:27:36.228Z,11.00
2023-01-06T03:30:09.686Z,10.90
2023-01-06T03:32:47.973Z,10.90
2023-01-06T03:35:18.666Z,10.90
2023-01-06T03:38:10.706Z,10.90
2023-01-06T03:40:43.908Z,10.90
2023-01-06T03:43:18.971Z,10.90
2023-01-06T03:45:52.595Z,10.90
2023-01-06T03:48:51.295Z,10.90
2023-01-06T03:51:39.827Z,10.90
2023-01-06T03:54:31.512Z,10.90
2023-01-06T03:57:18.389Z,11.00
2023-01-06T03:59:56.538Z,11.00
2023-01-06T04:02:25.095Z,11.00
2023-01-06T04:05:08.584Z,11.10
2023-01-06T04:07:35.603Z,11.10
2023-01-06T04:10:02.599Z,11.10
2023-01-06T04:12:38.743Z,11.10
2023-01-06T04:15:09.271Z,11.10
2023-01-06T04:17:38.758Z,11.10
2023-01-06T04:20:08.642Z,11.10
2023-01-06T04:22:36.033Z,11.10
2023-01-06T04:25:04.688Z,11.10
2023-01-06T04:27:31.763Z,11.10
2023-01-06T04:29:59.066Z,11.10
2023-01-06T04:32:26.075Z,11.10
2023-01-06T04:34:53.478Z,11.10
2023-01-06T04:37:21.468Z,11.10
2023-01-06T04:39:48.814Z,11.10
2023-01-06T04:42:16.855Z,11.10
2023-01-06T04:44:43.745Z,11.00
2023-01-06T04:47:10.982Z,11.00
2023-01-06T04:49:38.195Z,11.00
2023-01-06T04:52:05.750Z,11.00
2023-01-06T04:54:32.688Z,11.00
2023-01-06T04:56:59.593Z,11.00
2023-01-06T04:59:26.522Z,11.00
2023-01-06T05:01:53.531Z,10.90
2023-01-06T05:04:20.467Z,10.90
2023-01-06T05:06:47.421Z,11.00
2023-01-06T05:09:14.318Z,11.00
2023-01-06T05:11:41.317Z,11.00
2023-01-06T05:14:08.248Z,11.10
2023-01-06T05:16:35.661Z,11.10
2023-01-06T05:19:02.771Z,11.20
2023-01-06T05:21:32.693Z,11.30
2023-01-06T05:23:59.968Z,11.30
2023-01-06T05:26:27.996Z,11.30
2023-01-06T05:28:55.708Z,11.30
2023-01-06T05:31:23.237Z,11.30
2023-01-06T05:33:50.253Z,11.30
2023-01-06T05:36:18.922Z,11.20
2023-01-06T05:38:51.224Z,11.20
2023-01-06T05:41:18.120Z,11.20
2023-01-06T05:43:45.178Z,11.10
2023-01-06T05:46:12.552Z,11.10
2023-01-06T05:48:41.395Z,11.10
2023-01-06T05:51:14.915Z,11.10
2023-01-06T05:53:44.024Z,11.10
2023-01-06T05:56:13.672Z,11.00
2023-01-06T05:58:43.944Z,11.00
2023-01-06T06:01:21.105Z,11.00
2023-01-06T06:03:48.478Z,11.00
2023-01-06T06:06:16.377Z,11.00
2023-01-06T06:08:43.422Z,11.00
2023-01-06T06:11:13.511Z,10.90
2023-01-06T06:13:45.916Z,10.90
2023-01-06T06:16:14.621Z,10.90
2023-01-06T06:18:44.931Z,10.90
2023-01-06T06:21:17.501Z,10.90
2023-01-06T06:23:44.399Z,10.80
2023-01-06T06:26:12.103Z,10.80
2023-01-06T06:28:39.791Z,10.70
2023-01-06T06:31:09.508Z,10.70
2023-01-06T06:33:36.879Z,10.70
2023-01-06T06:36:05.337Z,10.60
2023-01-06T06:38:32.289Z,10.60
2023-01-06T06:40:59.202Z,10.60
2023-01-06T06:43:26.116Z,10.50
2023-01-06T06:45:53.065Z,10.50
2023-01-06T06:48:20.020Z,10.50
2023-01-06T06:50:46.901Z,10.50
2023-01-06T06:53:13.863Z,10.50
2023-01-06T06:55:40.736Z,10.40
2023-01-06T06:58:07.716Z,10.40
2023-01-06T07:00:34.607Z,10.40
2023-01-06T07:03:01.559Z,10.40
2023-01-06T07:05:29.795Z,10.40
2023-01-06T07:08:16.810Z,10.40
2023-01-06T07:11:16.620Z,10.30
2023-01-06T07:13:57.827Z,10.40
2023-01-06T07:16:37.937Z,10.30
2023-01-06T07:19:11.571Z,10.30
2023-01-06T07:21:57.605Z,10.30
2023-01-06T07:24:27.467Z,10.30
2023-01-06T07:26:54.382Z,10.40
2023-01-06T07:29:21.377Z,10.30
2023-01-06T07:31:56.085Z,10.40
2023-01-06T07:34:32.346Z,10.40
2023-01-06T07:37:12.619Z,10.40
2023-01-06T07:39:48.232Z,10.40
2023-01-06T07:42:21.668Z,10.40
2023-01-06T07:44:50.006Z,10.50
2023-01-06T07:47:20.873Z,10.50
2023-01-06T07:52:56.892Z,10.60
2023-01-06T07:55:33.328Z,10.70
2023-01-06T07:58:09.473Z,10.70
2023-01-06T08:00:37.008Z,10.80
2023-01-06T08:03:08.530Z,10.90
2023-01-06T08:05:41.531Z,11.00
2023-01-06T08:08:12.199Z,11.00
2023-01-06T08:10:42.039Z,11.10
2023-01-06T08:13:11.383Z,11.10
2023-01-06T08:15:39.237Z,11.20
2023-01-06T08:18:07.777Z,11.30
2023-01-06T08:20:35.612Z,11.40
2023-01-06T08:23:03.423Z,11.40
2023-01-06T08:25:30.478Z,11.50
2023-01-06T08:27:59.851Z,11.60
2023-01-06T08:30:27.157Z,11.60
2023-01-06T08:32:58.208Z,11.70
2023-01-06T08:35:26.210Z,11.70
2023-01-06T08:37:53.109Z,11.80
2023-01-06T08:40:20.030Z,11.80
2023-01-06T08:42:46.975Z,11.80
2023-01-06T08:45:14.594Z,11.80
2023-01-06T08:47:41.851Z,11.90
2023-01-06T08:50:09.275Z,11.90
2023-01-06T08:52:36.484Z,12.00
2023-01-06T08:55:05.394Z,12.00
2023-01-06T08:57:33.652Z,12.00
2023-01-06T09:00:00.604Z,12.00
2023-01-06T09:02:30.523Z,12.10
2023-01-06T09:04:57.672Z,12.10
2023-01-06T09:07:24.979Z,12.10
2023-01-06T09:09:52.125Z,12.20
2023-01-06T09:12:19.150Z,12.20
2023-01-06T09:14:46.974Z,12.30
2023-01-06T09:17:13.991Z,12.30
2023-01-06T09:19:42.524Z,12.30
2023-01-06T09:22:09.606Z,12.40
2023-01-06T09:24:36.650Z,12.40
2023-01-06T09:27:03.805Z,12.40
2023-01-06T09:29:31.198Z,12.50
2023-01-06T09:31:58.231Z,12.60
2023-01-06T09:34:25.776Z,12.60
2023-01-06T09:36:53.537Z,12.60
2023-01-06T09:39:20.430Z,12.60
2023-01-06T09:42:17.130Z,12.60
2023-01-06T09:45:16.942Z,12.70
2023-01-06T09:48:06.133Z,12.70
2023-01-06T09:50:46.116Z,12.80
2023-01-06T09:53:30.633Z,12.80
2023-01-06T09:56:01.425Z,12.90
2023-01-06T09:59:06.677Z,13.00
2023-01-06T10:01:40.567Z,13.00
2023-01-06T10:04:29.928Z,13.10
2023-01-06T10:07:24.692Z,13.20
2023-01-06T10:10:12.871Z,13.30
2023-01-06T10:12:45.600Z,13.30
2023-01-06T10:15:29.782Z,13.30
2023-01-06T10:18:20.353Z,13.40
2023-01-06T10:20:59.407Z,13.50
2023-01-06T10:24:04.377Z,13.50
2023-01-06T10:26:46.398Z,13.60
2023-01-06T10:29:20.907Z,13.70
2023-01-06T10:31:51.558Z,13.70
2023-01-06T10:34:24.604Z,13.70
2023-01-06T10:37:03.520Z,13.70
2023-01-06T10:39:33.818Z,13.70
2023-01-06T10:42:57.636Z,13.80
2023-01-06T10:45:42.164Z,13.80
2023-01-06T10:48:17.182Z,13.80
2023-01-06T10:50:44.556Z,13.70
2023-01-06T10:53:13.439Z,13.50
2023-01-06T10:55:47.706Z,13.30
2023-01-06T10:58:50.218Z,13.20
2023-01-06T11:01:26.158Z,13.10
2023-01-06T11:04:13.937Z,13.00
2023-01-06T11:07:14.740Z,12.90
2023-01-06T11:09:45.593Z,12.80
2023-01-06T11:12:20.043Z,12.90
2023-01-06T11:15:00.437Z,12.90
2023-01-06T11:17:28.856Z,12.90
2023-01-06T11:20:26.739Z,12.90
2023-01-06T11:22:53.707Z,12.90
2023-01-06T11:25:20.605Z,12.80
2023-01-06T11:27:49.081Z,12.80
2023-01-06T11:30:28.002Z,12.80
2023-01-06T11:32:55.868Z,12.80
2023-01-06T11:35:33.689Z,12.80
2023-01-06T11:38:00.940Z,12.90
2023-01-06T11:40:34.161Z,12.90
2023-01-06T11:43:20.230Z,12.90
2023-01-06T11:45:57.571Z,13.00
2023-01-06T11:48:35.845Z,13.00
2023-01-06T11:51:05.553Z,13.00
2023-01-06T11:53:34.367Z,13.00
2023-01-06T11:56:05.804Z,13.00
2023-01-06T11:59:02.164Z,13.00
2023-01-06T12:01:52.727Z,13.00
2023-01-06T12:04:44.471Z,13.00
2023-01-06T12:07:27.297Z,13.00
2023-01-06T12:09:58.136Z,13.00
2023-01-06T12:12:28.122Z,13.00
2023-01-06T12:14:56.659Z,13.00
2023-01-06T12:17:52.771Z,13.00
2023-01-06T12:20:38.508Z,13.00
2023-01-06T12:23:11.805Z,13.10
2023-01-06T12:25:44.566Z,13.10
2023-01-06T12:28:16.794Z,13.10
2023-01-06T12:30:57.443Z,13.20
2023-01-06T12:33:40.434Z,13.30
2023-01-06T12:36:23.309Z,13.30
2023-01-06T12:38:50.985Z,13.20
2023-01-06T12:41:26.477Z,13.20
2023-01-06T12:44:05.268Z,13.10
2023-01-06T12:46:42.856Z,13.10
2023-01-06T12:49:49.682Z,13.10
2023-01-06T12:52:34.699Z,13.10
2023-01-06T12:55:02.651Z,13.10
2023-01-06T12:57:46.626Z,13.10
2023-01-06T13:00:21.065Z,13.10
2023-01-06T13:02:57.025Z,13.10
2023-01-06T13:05:42.518Z,13.20
2023-01-06T13:09:00.701Z,13.20
2023-01-06T13:11:36.959Z,13.20
2023-01-06T13:14:15.810Z,13.20
2023-01-06T13:17:03.427Z,13.30
2023-01-06T13:19:56.113Z,13.30
2023-01-06T13:22:41.463Z,13.50
2023-01-06T13:25:33.559Z,13.70
2023-01-06T13:28:18.546Z,13.80
2023-01-06T13:30:51.308Z,14.00
2023-01-06T13:33:39.534Z,14.00
2023-01-06T13:36:06.559Z,14.00
2023-01-06T13:38:47.688Z,13.90
2023-01-06T13:41:18.284Z,13.80
2023-01-06T13:43:48.452Z,13.80
2023-01-06T13:46:18.857Z,13.70
2023-01-06T13:48:50.168Z,13.70
2023-01-06T13:51:20.445Z,13.70
2023-01-06T13:53:50.216Z,13.70
2023-01-06T13:56:31.531Z,13.70
2023-01-06T13:59:24.394Z,13.70
2023-01-06T14:02:05.217Z,13.80
2023-01-06T14:04:48.382Z,13.90
2023-01-06T14:07:41.268Z,13.90
2023-01-06T14:10:49.160Z,13.80
2023-01-06T14:13:39.275Z,13.80
2023-01-06T14:16:23.443Z,13.80
2023-01-06T14:19:32.598Z,13.70
2023-01-06T14:22:29.529Z,13.70
2023-01-06T14:25:12.047Z,13.60
2023-01-06T14:27:52.136Z,13.60
2023-01-06T14:30:45.471Z,13.60
2023-01-06T14:33:31.157Z,13.60
2023-01-06T14:36:04.094Z,13.50
2023-01-06T14:40:00.232Z,13.50
2023-01-06T14:43:04.807Z,13.50
2023-01-06T14:46:08.479Z,13.40
2023-01-06T14:49:01.989Z,13.40
2023-01-06T14:52:11.002Z,13.30
2023-01-06T14:55:11.722Z,13.20
2023-01-06T14:58:07.295Z,13.20
2023-01-06T15:01:09.796Z,13.20
2023-01-06T15:04:04.948Z,13.10
2023-01-06T15:06:52.747Z,13.10
2023-01-06T15:09:33.116Z,13.10
2023-01-06T15:12:30.400Z,13.00
2023-01-06T15:15:50.813Z,13.00
2023-01-06T15:18:32.491Z,13.00
2023-01-06T15:21:14.712Z,13.00
2023-01-06T15:23:59.466Z,13.00
2023-01-06T15:27:13.180Z,13.00
2023-01-06T15:30:18.967Z,13.00
2023-01-06T15:32:55.930Z,13.00
2023-01-06T15:35:38.088Z,13.00
2023-01-06T15:38:30.854Z,13.00
2023-01-06T15:41:01.298Z,12.90
2023-01-06T15:43:31.317Z,12.90
2023-01-06T15:46:34.416Z,12.90
2023-01-06T15:49:28.422Z,12.90
2023-01-06T15:52:22.588Z,12.90
2023-01-06T15:54:57.179Z,12.90
2023-01-06T15:57:51.280Z,12.90
2023-01-06T16:00:35.038Z,12.90
2023-01-06T16:03:28.845Z,12.80
2023-01-06T16:06:14.241Z,12.80
2023-01-06T16:08:42.355Z,12.80
2023-01-06T16:11:40.344Z,12.70
2023-01-06T16:14:24.340Z,12.70
2023-01-06T16:16:51.942Z,12.70
2023-01-06T16:19:22.100Z,12.70
2023-01-06T16:21:54.163Z,12.70
2023-01-06T16:24:27.356Z,12.60
2023-01-06T16:26:58.725Z,12.70
2023-01-06T16:29:33.455Z,12.60
2023-01-06T16:32:28.303Z,12.60
2023-01-06T16:35:00.879Z,12.50
2023-01-06T16:37:27.857Z,12.50
2023-01-06T16:39:58.484Z,12.50
2023-01-06T16:42:42.357Z,12.50
2023-01-06T16:45:31.003Z,12.50
2023-01-06T16:47:58.813Z,12.50
2023-01-06T16:50:34.851Z,12.50
2023-01-06T16:53:11.579Z,12.50
2023-01-06T16:55:40.125Z,12.50
2023-01-06T16:58:22.616Z,12.40
2023-01-06T17:00:52.248Z,12.40
2023-01-06T17:03:22.295Z,12.40
2023-01-06T17:05:49.831Z,12.40
2023-01-06T17:08:22.469Z,12.50
2023-01-06T17:10:49.408Z,12.50
2023-01-06T17:13:35.626Z,12.50
2023-01-06T17:16:16.764Z,12.50
2023-01-06T17:19:02.109Z,12.50
2023-01-06T17:21:37.455Z,12.50
2023-01-06T17:24:22.955Z,12.50
2023-01-06T17:26:57.508Z,12.50
2023-01-06T17:29:32.981Z,12.50
2023-01-06T17:32:02.808Z,12.50
2023-01-06T17:34:36.772Z,12.50
2023-01-06T17:37:13.397Z,12.40
2023-01-06T17:39:43.758Z,12.40
2023-01-06T17:42:13.835Z,12.40
2023-01-06T17:44:45.508Z,12.40
2023-01-06T17:47:16.806Z,12.40
2023-01-06T17:49:58.631Z,12.40
2023-01-06T17:52:44.418Z,12.40
2023-01-06T17:55:46.923Z,12.30
2023-01-06T17:58:21.312Z,12.40
2023-01-06T18:04:08.623Z,12.30
2023-01-06T18:06:53.112Z,12.30
2023-01-06T18:09:26.894Z,12.30
2023-01-06T18:12:06.836Z,12.30
2023-01-06T18:14:46.882Z,12.40
2023-01-06T18:17:34.013Z,12.30
2023-01-06T18:20:09.768Z,12.30
2023-01-06T18:22:44.373Z,12.30
2023-01-06T18:25:45.077Z,12.30
2023-01-06T18:28:31.875Z,12.30
2023-01-06T18:31:07.083Z,12.30
2023-01-06T18:33:40.227Z,12.30
2023-01-06T18:36:22.687Z,12.30
2023-01-06T18:38:56.949Z,12.40
2023-01-06T18:41:34.542Z,12.30
2023-01-06T18:44:21.601Z,12.30
2023-01-06T18:46:54.030Z,12.30
2023-01-06T18:49:47.131Z,12.30
2023-01-06T18:52:41.349Z,12.20
2023-01-06T18:55:30.260Z,12.20
2023-01-06T18:58:16.923Z,12.20
2023-01-06T19:00:56.181Z,12.20
2023-01-06T19:03:34.169Z,12.20
2023-01-06T19:06:30.885Z,12.20
2023-01-06T19:08:58.006Z,12.30
2023-01-06T19:11:28.383Z,12.20
2023-01-06T19:14:00.671Z,12.20
2023-01-06T19:16:30.710Z,12.20
2023-01-06T19:19:09.694Z,12.10
2023-01-06T19:21:38.093Z,12.10
2023-01-06T19:24:26.833Z,12.10
2023-01-06T19:26:55.757Z,12.00
2023-01-06T19:29:32.657Z,11.90
2023-01-06T19:32:13.216Z,11.90
2023-01-06T19:34:40.247Z,11.80
2023-01-06T19:37:17.339Z,11.70
2023-01-06T19:39:48.494Z,11.70
2023-01-06T19:42:23.145Z,11.60
2023-01-06T19:44:57.594Z,11.60
2023-01-06T19:47:31.729Z,11.60
2023-01-06T19:50:18.607Z,11.50
2023-01-06T19:52:51.154Z,11.50
2023-01-06T19:55:42.221Z,11.50
2023-01-06T19:58:22.619Z,11.50
2023-01-06T20:01:16.993Z,11.50
2023-01-06T20:07:12.108Z,11.60
2023-01-06T20:09:49.035Z,11.60
2023-01-06T20:12:22.523Z,11.60
2023-01-06T20:14:53.419Z,11.60
2023-01-06T20:17:21.721Z,11.60
2023-01-06T20:19:49.897Z,11.70
2023-01-06T20:22:19.433Z,11.70
2023-01-06T20:24:53.692Z,11.70
2023-01-06T20:27:24.645Z,11.70
2023-01-06T20:29:59.970Z,11.70
2023-01-06T20:32:31.500Z,11.60
2023-01-06T20:35:06.124Z,11.60
2023-01-06T20:38:06.009Z,11.60
2023-01-06T20:40:43.105Z,11.60
2023-01-06T20:43:14.247Z,11.60
2023-01-06T20:45:56.099Z,11.60
2023-01-06T20:48:29.020Z,11.60
2023-01-06T20:51:09.797Z,11.50
2023-01-06T20:53:43.522Z,11.40
2023-01-06T20:56:21.829Z,11.40
2023-01-06T20:58:50.637Z,11.30
2023-01-06T21:01:22.617Z,11.20
2023-01-06T21:04:05.189Z,11.20
2023-01-06T21:09:32.022Z,11.20
2023-01-06T21:12:02.738Z,11.20
2023-01-06T21:14:36.957Z,11.20
2023-01-06T21:17:11.744Z,11.30
2023-01-06T21:19:46.164Z,11.30
2023-01-06T21:22:21.063Z,11.30
2023-01-06T21:24:55.949Z,11.30
2023-01-06T21:27:32.268Z,11.40
2023-01-06T21:30:07.133Z,11.40
2023-01-06T21:32:39.548Z,11.40
2023-01-06T21:35:15.439Z,11.40
2023-01-06T21:37:44.230Z,11.50
2023-01-06T21:40:18.854Z,11.40
2023-01-06T21:43:16.530Z,11.50
2023-01-06T21:45:45.558Z,11.50
2023-01-06T21:48:19.511Z,11.50
2023-01-06T21:50:56.521Z,11.50
2023-01-06T21:53:37.142Z,11.50
2023-01-06T21:56:18.403Z,11.50
2023-01-06T21:58:47.669Z,11.60
2023-01-06T22:01:14.917Z,11.60
2023-01-06T22:03:41.840Z,11.60
2023-01-06T22:06:09.574Z,11.60
2023-01-06T22:08:37.308Z,11.60
2023-01-06T22:11:05.019Z,11.60
2023-01-06T22:13:33.425Z,11.60
2023-01-06T22:16:00.576Z,11.70
2023-01-06T22:18:28.131Z,11.70
2023-01-06T22:20:58.092Z,11.70
2023-01-06T22:23:25.113Z,11.70
2023-01-06T22:25:53.670Z,11.70
2023-01-06T22:28:21.864Z,11.60
2023-01-06T22:30:51.498Z,11.60
2023-01-06T22:33:18.421Z,11.60
2023-01-06T22:35:48.519Z,11.60
2023-01-06T22:38:15.612Z,11.60
2023-01-06T22:40:42.636Z,11.70
2023-01-06T22:43:09.815Z,11.70
2023-01-06T22:45:36.983Z,11.70
2023-01-06T22:48:03.990Z,11.70
2023-01-06T22:50:31.098Z,11.70
2023-01-06T22:52:58.168Z,11.70
2023-01-06T22:55:25.173Z,11.70
2023-01-06T22:57:52.175Z,11.70
2023-01-06T23:00:21.974Z,11.60
2023-01-06T23:02:49.091Z,11.70
2023-01-06T23:05:16.134Z,11.70
2023-01-06T23:07:43.992Z,11.70
2023-01-06T23:10:12.897Z,11.70
2023-01-06T23:12:40.983Z,11.70
2023-01-06T23:15:09.186Z,11.70
2023-01-06T23:17:36.935Z,11.70
2023-01-06T23:20:05.397Z,11.70
2023-01-06T23:22:32.371Z,11.60
2023-01-06T23:24:59.345Z,11.70
2023-01-06T23:27:26.232Z,11.70
2023-01-06T23:29:53.134Z,11.70
2023-01-06T23:32:20.370Z,11.70
2023-01-06T23:34:47.807Z,11.70
2023-01-06T23:37:14.728Z,11.70
2023-01-06T23:39:41.690Z,11.60
2023-01-06T23:42:08.611Z,11.60
2023-01-06T23:44:35.629Z,11.60
2023-01-06T23:47:02.563Z,11.60
2023-01-06T23:49:29.594Z,11.60
2023-01-06T23:51:56.515Z,11.60
2023-01-06T23:54:23.562Z,11.60
2023-01-06T23:56:50.446Z,11.60
2023-01-06T23:59:17.434Z,11.60
